Time;durP1;ratioP1;P1;durP2;ratioP2;P2;SDS_P1;SDS_P2;PMS_P1;PMS_P2;Temp;Humidity;BMP_temperature;BMP_pressure;BME280_temperature;BME280_humidity;BME280_pressure;Samples;Min_cycle;Max_cycle;Signal;HPM_P1;HPM_P2
2023/03/05 00:02:05;;;;;;;7.83;2.00;;;3.10;99.90;;;;;;5053875;28;20028;-61
2023/03/05 00:04:30;;;;;;;11.73;2.00;;;3.00;99.90;;;;;;5047980;28;20039;-61
2023/03/05 00:06:56;;;;;;;4.83;1.70;;;2.90;99.90;;;;;;5048426;28;20025;-61
2023/03/05 00:09:22;;;;;;;11.83;1.77;;;2.80;99.90;;;;;;5050907;28;20029;-61
2023/03/05 00:11:48;;;;;;;9.00;2.40;;;2.90;99.90;;;;;;5053348;28;20033;-61
2023/03/05 00:14:13;;;;;;;4.43;1.30;;;2.80;99.90;;;;;;5029373;28;20021;-71
2023/03/05 00:16:39;;;;;;;6.20;1.67;;;2.80;99.90;;;;;;5035558;28;20041;-61
2023/03/05 00:19:05;;;;;;;5.47;1.75;;;2.70;99.90;;;;;;5047852;28;20415;-61
2023/03/05 00:21:35;;;;;;;4.73;1.70;;;2.70;99.90;;;;;;5049666;28;20036;-61
2023/03/05 00:24:02;;;;;;;6.65;2.33;;;2.70;99.90;;;;;;5036372;28;20433;-61
2023/03/05 00:26:29;;;;;;;7.88;1.48;;;2.70;99.90;;;;;;5046922;28;20045;-61
2023/03/05 00:28:57;;;;;;;7.60;1.80;;;2.70;99.90;;;;;;5025018;28;20503;-61
2023/03/05 00:31:31;;;;;;;11.15;1.58;;;2.70;99.90;;;;;;5053213;28;20059;-61
2023/03/05 00:34:02;;;;;;;4.40;1.60;;;2.60;99.90;;;;;;5051809;28;20126;-61
2023/03/05 00:36:28;;;;;;;6.60;1.73;;;2.60;99.90;;;;;;5044298;28;20096;-60
2023/03/05 00:38:54;;;;;;;7.60;2.00;;;2.50;99.90;;;;;;5054157;28;20036;-61
2023/03/05 00:41:20;;;;;;;4.85;2.13;;;2.50;99.90;;;;;;5043029;28;20098;-61
2023/03/05 00:43:46;;;;;;;3.43;1.30;;;2.40;99.90;;;;;;5045130;28;20088;-61
2023/03/05 00:46:12;;;;;;;8.55;2.33;;;2.40;99.90;;;;;;5052980;28;20040;-70
2023/03/05 00:48:38;;;;;;;5.80;1.43;;;2.30;99.90;;;;;;5050778;28;20061;-61
2023/03/05 00:51:03;;;;;;;7.83;1.97;;;2.20;99.90;;;;;;5050182;28;20098;-61
2023/03/05 00:53:29;;;;;;;18.93;2.83;;;2.20;99.90;;;;;;5044206;28;20442;-61
2023/03/05 00:55:55;;;;;;;2.27;0.97;;;2.10;99.90;;;;;;5055782;28;20040;-61
2023/03/05 00:58:21;;;;;;;6.30;1.93;;;2.10;99.90;;;;;;5051710;28;20017;-61
2023/03/05 01:00:49;;;;;;;7.97;1.67;;;2.10;99.90;;;;;;5057195;28;20033;-61
2023/03/05 01:03:16;;;;;;;8.13;1.83;;;2.10;99.90;;;;;;5055318;28;20031;-61
2023/03/05 01:05:42;;;;;;;8.77;1.80;;;2.10;99.90;;;;;;5062653;28;20067;-61
2023/03/05 01:08:08;;;;;;;9.68;2.15;;;2.10;99.90;;;;;;5057767;28;20091;-60
2023/03/05 01:10:34;;;;;;;12.45;1.70;;;2.10;99.90;;;;;;5053766;28;20033;-61
2023/03/05 01:13:00;;;;;;;6.60;1.63;;;2.00;99.90;;;;;;5053210;28;20035;-61
2023/03/05 01:15:26;;;;;;;7.47;1.27;;;2.10;99.90;;;;;;5055285;28;20067;-61
2023/03/05 01:17:51;;;;;;;8.38;2.00;;;2.00;99.90;;;;;;5055963;28;20120;-61
2023/03/05 01:20:20;;;;;;;4.00;1.40;;;2.00;99.90;;;;;;5055545;28;20595;-71
2023/03/05 01:22:45;;;;;;;10.57;2.03;;;2.00;99.90;;;;;;5055088;28;20068;-61
2023/03/05 01:25:12;;;;;;;4.33;1.90;;;2.00;99.90;;;;;;5056586;28;20057;-61
2023/03/05 01:27:38;;;;;;;4.53;1.67;;;2.00;99.90;;;;;;5064792;28;20042;-61
2023/03/05 01:30:06;;;;;;;10.33;1.77;;;2.00;99.90;;;;;;5055763;28;20428;-61
2023/03/05 01:32:33;;;;;;;3.20;1.30;;;2.00;99.90;;;;;;5039529;28;20029;-61
2023/03/05 01:35:00;;;;;;;13.07;1.73;;;2.00;99.90;;;;;;5048556;28;20159;-60
2023/03/05 01:37:26;;;;;;;10.00;2.20;;;2.00;99.90;;;;;;5056699;28;20033;-71
2023/03/05 01:39:51;;;;;;;8.63;2.27;;;2.10;99.90;;;;;;5047948;28;20025;-61
2023/03/05 01:42:19;;;;;;;14.57;2.07;;;2.20;99.90;;;;;;5058419;28;20064;-61
2023/03/05 01:45:11;;;;;;;5.72;1.90;;;2.10;99.90;;;;;;5051873;28;20029;-61
2023/03/05 01:47:37;;;;;;;8.77;1.98;;;2.20;99.90;;;;;;5055263;28;20033;-61
2023/03/05 01:50:09;;;;;;;16.70;2.30;;;2.20;99.90;;;;;;5057905;28;20390;-60
2023/03/05 01:52:37;;;;;;;9.40;1.77;;;2.30;99.90;;;;;;5053375;28;20121;-72
2023/03/05 01:55:12;;;;;;;6.10;2.03;;;2.40;99.90;;;;;;5055480;28;20407;-61
2023/03/05 01:57:46;;;;;;;8.57;1.30;;;2.60;99.90;;;;;;5058629;28;20037;-61
2023/03/05 02:00:16;;;;;;;2.80;1.67;;;2.80;99.90;;;;;;5055795;28;20025;-70
2023/03/05 02:02:43;;;;;;;8.90;1.48;;;2.90;99.90;;;;;;5049424;28;20131;-61
2023/03/05 02:05:16;;;;;;;5.88;1.20;;;3.00;99.90;;;;;;5054072;28;20107;-61
2023/03/05 02:07:44;;;;;;;5.82;1.20;;;3.00;99.90;;;;;;5055129;28;20346;-61
2023/03/05 02:10:20;;;;;;;4.10;1.60;;;3.10;99.90;;;;;;5055681;28;20362;-61
2023/03/05 02:12:47;;;;;;;9.43;2.80;;;3.10;99.90;;;;;;5049290;28;20029;-72
2023/03/05 02:15:14;;;;;;;4.53;1.85;;;3.10;99.90;;;;;;5057611;28;20423;-61
2023/03/05 02:17:40;;;;;;;4.85;1.45;;;3.10;99.90;;;;;;5055232;28;20068;-60
2023/03/05 02:20:20;;;;;;;11.30;1.53;;;3.10;99.90;;;;;;5051215;28;20396;-61
2023/03/05 02:22:46;;;;;;;2.75;1.25;;;3.10;99.90;;;;;;5054632;28;20025;-61
2023/03/05 02:25:17;;;;;;;2.50;1.10;;;3.10;99.90;;;;;;5053703;28;20064;-61
2023/03/05 02:27:50;;;;;;;3.20;1.20;;;3.10;99.90;;;;;;5055398;28;20055;-71
2023/03/05 02:30:17;;;;;;;1.35;0.98;;;3.10;99.90;;;;;;5060707;28;20036;-71
2023/03/05 02:32:42;;;;;;;5.07;1.23;;;3.10;99.90;;;;;;5052571;28;20048;-61
2023/03/05 02:35:08;;;;;;;3.27;1.10;;;3.00;99.90;;;;;;5051856;28;20038;-71
2023/03/05 02:37:34;;;;;;;3.28;1.35;;;2.90;99.90;;;;;;5048873;28;20097;-61
2023/03/05 02:40:00;;;;;;;3.17;1.40;;;2.80;99.90;;;;;;5028958;28;20103;-61
2023/03/05 02:42:25;;;;;;;4.37;1.23;;;2.80;99.90;;;;;;5037409;28;20024;-61
2023/03/05 02:44:51;;;;;;;5.90;1.17;;;2.70;99.90;;;;;;5031710;28;20111;-61
2023/03/05 02:47:17;;;;;;;4.87;1.27;;;2.70;99.90;;;;;;5057825;28;20036;-71
2023/03/05 02:49:42;;;;;;;5.40;0.80;;;2.60;99.90;;;;;;5055351;28;20119;-61
2023/03/05 02:52:08;;;;;;;5.27;1.60;;;2.60;99.90;;;;;;5054528;28;20043;-61
2023/03/05 02:54:34;;;;;;;6.30;1.00;;;2.50;99.90;;;;;;5058496;28;20072;-61
2023/03/05 02:56:59;;;;;;;3.80;1.10;;;2.50;99.90;;;;;;5055895;28;20090;-61
2023/03/05 02:59:25;;;;;;;5.50;1.63;;;2.50;99.90;;;;;;5055085;28;20033;-61
2023/03/05 03:01:51;;;;;;;4.27;1.57;;;2.40;99.90;;;;;;5045250;28;20113;-61
2023/03/05 03:04:16;;;;;;;6.47;1.30;;;2.40;99.90;;;;;;5035436;28;20056;-61
2023/03/05 03:06:42;;;;;;;2.47;1.40;;;2.50;99.90;;;;;;5057356;28;20090;-61
2023/03/05 03:09:07;;;;;;;8.47;1.10;;;2.60;99.90;;;;;;5055342;28;20123;-61
2023/03/05 03:11:33;;;;;;;1.80;0.63;;;2.60;99.90;;;;;;5044631;28;20040;-61
2023/03/05 03:13:59;;;;;;;6.90;1.60;;;2.70;99.90;;;;;;5055037;28;20103;-61
2023/03/05 03:16:25;;;;;;;8.57;1.40;;;2.70;99.90;;;;;;5059113;28;20055;-60
2023/03/05 03:18:50;;;;;;;5.07;1.00;;;2.80;99.90;;;;;;5049603;28;20112;-61
2023/03/05 03:21:19;;;;;;;5.00;1.70;;;2.90;99.90;;;;;;5056496;28;20029;-71
2023/03/05 03:23:45;;;;;;;8.32;1.50;;;2.90;99.90;;;;;;5051614;28;20086;-61
2023/03/05 03:26:10;;;;;;;4.10;1.70;;;2.80;99.90;;;;;;5059623;28;20338;-61
2023/03/05 03:28:36;;;;;;;5.43;1.77;;;2.80;99.90;;;;;;5057865;28;20576;-61
2023/03/05 03:31:02;;;;;;;7.13;1.87;;;2.80;99.90;;;;;;5054793;28;20462;-61
2023/03/05 03:33:27;;;;;;;13.50;2.17;;;2.70;99.90;;;;;;5037134;28;20060;-61
2023/03/05 03:35:53;;;;;;;9.00;1.70;;;2.70;99.90;;;;;;5055103;28;20127;-61
2023/03/05 03:38:19;;;;;;;7.17;1.43;;;2.60;99.90;;;;;;5060282;28;20032;-63
2023/03/05 03:40:44;;;;;;;3.10;1.70;;;2.70;99.90;;;;;;5057313;28;20032;-61
2023/03/05 03:43:10;;;;;;;7.90;1.70;;;2.60;99.90;;;;;;5055922;28;20403;-61
2023/03/05 03:45:40;;;;;;;3.10;1.30;;;2.70;99.90;;;;;;5047585;28;20052;-61
2023/03/05 03:48:06;;;;;;;3.97;1.48;;;2.70;99.90;;;;;;5036432;28;20036;-61
2023/03/05 03:50:31;;;;;;;8.73;2.03;;;2.70;99.90;;;;;;5046549;28;20402;-61
2023/03/05 03:52:57;;;;;;;8.33;1.97;;;2.60;99.90;;;;;;5047721;28;20119;-61
2023/03/05 03:55:23;;;;;;;8.93;1.40;;;2.60;99.90;;;;;;5051433;28;20043;-71
2023/03/05 03:57:48;;;;;;;3.37;1.57;;;2.70;99.90;;;;;;5048231;28;20040;-61
2023/03/05 04:00:15;;;;;;;5.60;1.40;;;2.60;99.90;;;;;;5053227;28;20032;-61
2023/03/05 04:02:40;;;;;;;11.65;1.75;;;2.70;99.90;;;;;;5052984;28;20033;-61
2023/03/05 04:05:07;;;;;;;4.60;1.70;;;2.70;99.90;;;;;;5048004;28;20033;-61
2023/03/05 04:07:32;;;;;;;2.88;1.42;;;2.60;99.90;;;;;;5053108;28;20119;-61
2023/03/05 04:09:58;;;;;;;1.30;1.10;;;2.60;99.90;;;;;;5052227;28;20360;-61
2023/03/05 04:12:23;;;;;;;6.90;1.10;;;2.50;99.90;;;;;;5053175;28;20021;-61
2023/03/05 04:14:49;;;;;;;3.67;1.60;;;2.50;99.90;;;;;;5049870;28;20112;-61
2023/03/05 04:17:15;;;;;;;10.43;1.67;;;2.50;99.90;;;;;;5050175;28;20029;-70
2023/03/05 04:19:41;;;;;;;3.27;1.20;;;2.50;99.90;;;;;;5049001;28;20319;-61
2023/03/05 04:22:15;;;;;;;4.68;1.80;;;2.50;99.90;;;;;;5047084;28;20053;-71
2023/03/05 04:24:41;;;;;;;6.53;1.58;;;2.50;99.90;;;;;;5030944;28;20330;-60
2023/03/05 04:27:07;;;;;;;7.00;1.77;;;2.40;99.90;;;;;;5045502;28;20522;-61
2023/03/05 04:29:34;;;;;;;6.68;1.73;;;2.50;99.90;;;;;;5046211;28;20095;-70
2023/03/05 04:31:59;;;;;;;10.40;2.55;;;2.50;99.90;;;;;;5055383;28;20029;-61
2023/03/05 04:34:25;;;;;;;3.53;1.10;;;2.40;99.90;;;;;;5056286;28;20075;-61
2023/03/05 04:36:51;;;;;;;5.27;1.27;;;2.40;99.90;;;;;;5038704;28;20675;-61
2023/03/05 04:39:19;;;;;;;3.87;2.17;;;2.40;99.90;;;;;;5056254;28;20025;-61
2023/03/05 04:41:46;;;;;;;9.65;1.65;;;2.40;99.90;;;;;;5048613;28;20040;-61
2023/03/05 04:44:11;;;;;;;3.00;1.70;;;2.40;99.90;;;;;;5058301;28;20108;-61
2023/03/05 04:46:37;;;;;;;2.83;1.23;;;2.30;99.90;;;;;;5051879;28;20120;-71
2023/03/05 04:49:03;;;;;;;5.33;1.20;;;2.30;99.90;;;;;;5051380;28;20082;-61
2023/03/05 04:51:28;;;;;;;4.13;1.00;;;2.20;99.90;;;;;;5048008;28;20033;-61
2023/03/05 04:53:54;;;;;;;5.77;1.30;;;2.20;99.90;;;;;;5057316;28;20033;-61
2023/03/05 04:56:20;;;;;;;8.13;2.00;;;2.20;99.90;;;;;;5057369;28;20028;-62
2023/03/05 04:58:46;;;;;;;4.40;1.60;;;2.20;99.90;;;;;;5047012;28;20091;-61
2023/03/05 05:01:12;;;;;;;8.07;1.33;;;2.20;99.90;;;;;;5060773;28;20140;-61
2023/03/05 05:03:38;;;;;;;2.08;1.42;;;2.20;99.90;;;;;;5054692;28;20033;-71
2023/03/05 05:06:04;;;;;;;6.33;1.17;;;2.20;99.90;;;;;;5056240;28;20017;-61
2023/03/05 05:08:29;;;;;;;3.93;1.73;;;2.20;99.90;;;;;;5039140;28;20359;-61
2023/03/05 05:10:57;;;;;;;1.90;1.37;;;2.30;99.90;;;;;;5054191;28;20052;-61
2023/03/05 05:13:23;;;;;;;4.25;1.65;;;2.30;99.90;;;;;;5039196;28;20025;-61
2023/03/05 05:15:49;;;;;;;2.72;1.75;;;2.40;99.90;;;;;;5054788;28;20037;-61
2023/03/05 05:18:14;;;;;;;2.07;0.83;;;2.40;99.90;;;;;;5060150;28;20354;-61
2023/03/05 05:20:40;;;;;;;5.73;1.50;;;2.40;99.90;;;;;;5056462;28;20289;-67
2023/03/05 05:23:06;;;;;;;4.07;1.57;;;2.40;99.90;;;;;;5058569;28;20495;-61
2023/03/05 05:25:31;;;;;;;6.70;1.93;;;2.40;99.90;;;;;;5055221;28;20025;-61
2023/03/05 05:27:57;;;;;;;6.10;1.43;;;2.30;99.90;;;;;;5058071;28;20045;-61
2023/03/05 05:30:23;;;;;;;6.97;1.57;;;2.30;99.90;;;;;;5055500;28;20331;-61
2023/03/05 05:32:48;;;;;;;1.47;1.10;;;2.20;99.90;;;;;;5057823;28;20110;-61
2023/03/05 05:35:14;;;;;;;3.90;1.30;;;2.20;99.90;;;;;;5055950;28;20029;-61
2023/03/05 05:37:40;;;;;;;4.63;1.90;;;2.20;99.90;;;;;;5054629;28;20044;-61
2023/03/05 05:40:08;;;;;;;4.83;1.93;;;2.30;99.90;;;;;;5056324;28;20021;-61
2023/03/05 05:42:34;;;;;;;3.45;1.85;;;2.30;99.90;;;;;;5057540;28;20416;-60
2023/03/05 05:45:01;;;;;;;5.93;1.90;;;2.30;99.90;;;;;;5057903;28;20053;-61
2023/03/05 05:47:28;;;;;;;4.15;1.50;;;2.30;99.90;;;;;;5054998;28;20041;-71
2023/03/05 05:49:54;;;;;;;5.88;1.83;;;2.30;99.90;;;;;;5055480;28;20061;-61
2023/03/05 05:52:20;;;;;;;3.28;1.98;;;2.30;99.90;;;;;;5059205;28;20043;-62
2023/03/05 05:54:47;;;;;;;3.67;1.80;;;2.30;99.90;;;;;;5049891;28;20112;-61
2023/03/05 05:57:13;;;;;;;4.72;1.63;;;2.20;99.90;;;;;;5050627;28;20036;-61
2023/03/05 05:59:39;;;;;;;4.30;1.52;;;2.20;99.90;;;;;;5053666;28;20036;-60
2023/03/05 06:02:06;;;;;;;4.80;1.70;;;2.20;99.90;;;;;;5056179;28;20549;-61
2023/03/05 06:04:33;;;;;;;5.43;2.00;;;2.20;99.90;;;;;;5057027;28;20365;-62
2023/03/05 06:06:59;;;;;;;2.40;1.80;;;2.20;99.90;;;;;;5050896;28;20041;-61
2023/03/05 06:09:25;;;;;;;3.80;1.23;;;2.10;99.90;;;;;;5049522;28;20037;-61
2023/03/05 06:11:51;;;;;;;1.45;1.33;;;2.10;99.90;;;;;;5059873;28;20025;-61
2023/03/05 06:14:17;;;;;;;5.90;1.63;;;2.00;99.90;;;;;;5052278;28;20035;-61
2023/03/05 06:16:43;;;;;;;4.40;1.13;;;2.00;99.90;;;;;;5055535;28;20355;-61
2023/03/05 06:19:12;;;;;;;5.30;1.50;;;2.00;99.90;;;;;;5055826;28;20039;-61
2023/03/05 06:21:38;;;;;;;7.80;1.90;;;2.00;99.90;;;;;;5053989;28;20022;-61
2023/03/05 06:24:04;;;;;;;7.07;1.83;;;2.00;99.90;;;;;;5056044;28;20431;-61
2023/03/05 06:26:29;;;;;;;11.85;2.40;;;1.90;99.90;;;;;;5059841;28;20020;-61
2023/03/05 06:28:56;;;;;;;5.17;2.40;;;1.90;99.90;;;;;;5053333;28;20443;-71
2023/03/05 06:31:26;;;;;;;3.70;1.35;;;1.90;99.90;;;;;;5054687;28;20719;-61
2023/03/05 06:33:55;;;;;;;2.42;1.60;;;2.00;99.90;;;;;;5056000;28;20443;-60
2023/03/05 06:36:23;;;;;;;6.07;1.65;;;2.00;99.90;;;;;;5057574;28;20304;-70
2023/03/05 06:38:50;;;;;;;3.53;1.58;;;2.00;99.90;;;;;;5039797;28;20082;-61
2023/03/05 06:41:18;;;;;;;2.95;1.38;;;2.10;99.90;;;;;;5057609;28;20608;-61
2023/03/05 06:43:45;;;;;;;3.47;1.67;;;2.10;99.90;;;;;;5055801;28;20033;-61
2023/03/05 06:46:18;;;;;;;6.28;2.05;;;2.20;99.90;;;;;;5060122;28;20098;-62
2023/03/05 06:48:44;;;;;;;2.38;1.80;;;2.20;99.90;;;;;;5060565;28;20410;-61
2023/03/05 06:51:37;;;;;;;6.75;1.70;;;2.40;99.90;;;;;;5055917;28;20054;-61
2023/03/05 06:54:09;;;;;;;4.25;1.88;;;2.40;99.90;;;;;;5023581;28;20047;-60
2023/03/05 06:56:36;;;;;;;6.13;1.70;;;2.40;99.90;;;;;;5056038;28;20115;-61
2023/03/05 06:59:02;;;;;;;9.52;1.83;;;2.50;99.90;;;;;;5056404;28;20074;-61
2023/03/05 07:01:28;;;;;;;3.60;1.52;;;2.50;99.90;;;;;;5057320;28;20744;-61
2023/03/05 07:03:57;;;;;;;25.50;2.63;;;2.50;99.90;;;;;;5049724;28;20033;-61
2023/03/05 07:06:24;;;;;;;3.28;1.63;;;2.60;99.90;;;;;;5046206;28;20044;-61
2023/03/05 07:08:49;;;;;;;8.98;1.63;;;2.60;99.90;;;;;;5051886;28;20042;-61
2023/03/05 07:11:18;;;;;;;2.93;1.20;;;2.70;99.90;;;;;;5059717;28;20040;-61
2023/03/05 07:13:46;;;;;;;3.70;1.60;;;2.80;99.90;;;;;;5050254;28;20467;-72
2023/03/05 07:16:17;;;;;;;5.85;1.67;;;2.80;99.90;;;;;;5056364;28;20039;-61
2023/03/05 07:18:44;;;;;;;8.35;1.88;;;2.90;99.90;;;;;;5057683;28;20040;-61
2023/03/05 07:21:13;;;;;;;1.70;1.02;;;3.00;99.90;;;;;;5052623;28;20036;-70
2023/03/05 07:23:39;;;;;;;1.85;1.15;;;3.00;99.90;;;;;;5069968;28;20044;-61
2023/03/05 07:26:06;;;;;;;5.87;1.57;;;3.10;99.90;;;;;;5054785;28;20024;-61
2023/03/05 07:28:32;;;;;;;0.98;0.82;;;3.10;99.90;;;;;;5058295;28;20573;-61
2023/03/05 07:31:06;;;;;;;2.08;1.10;;;3.10;99.90;;;;;;5056497;28;20124;-61
2023/03/05 07:33:34;;;;;;;2.92;1.27;;;3.10;99.90;;;;;;5053428;28;20036;-61
2023/03/05 07:36:00;;;;;;;5.05;1.35;;;3.10;99.90;;;;;;5061409;28;20297;-62
2023/03/05 07:38:26;;;;;;;4.82;1.38;;;3.20;99.90;;;;;;5045582;28;20328;-61
2023/03/05 07:40:52;;;;;;;4.43;1.50;;;3.30;99.90;;;;;;5043939;28;20026;-61
2023/03/05 07:43:18;;;;;;;8.50;1.33;;;3.50;99.90;;;;;;5047722;28;20120;-61
2023/03/05 07:45:44;;;;;;;3.33;1.57;;;3.70;99.90;;;;;;5046425;28;20036;-62
2023/03/05 07:48:16;;;;;;;3.25;1.38;;;3.80;99.90;;;;;;5049285;28;20438;-61
2023/03/05 07:50:42;;;;;;;6.07;1.60;;;3.90;99.90;;;;;;5049595;28;20041;-61
2023/03/05 07:53:08;;;;;;;4.28;1.13;;;4.00;99.90;;;;;;5049975;28;20037;-71
2023/03/05 07:55:34;;;;;;;5.23;0.90;;;4.10;99.90;;;;;;5049364;28;20029;-61
2023/03/05 07:58:00;;;;;;;6.83;1.30;;;4.10;99.90;;;;;;5049213;28;20266;-61
2023/03/05 08:00:26;;;;;;;1.60;1.17;;;4.10;99.90;;;;;;5051896;28;20027;-61
2023/03/05 08:02:51;;;;;;;2.53;1.10;;;4.10;99.90;;;;;;5027188;28;20064;-62
2023/03/05 08:05:17;;;;;;;2.70;1.13;;;4.20;99.90;;;;;;5050369;28;20033;-62
2023/03/05 08:07:43;;;;;;;5.47;1.45;;;4.20;99.90;;;;;;5051034;28;20037;-61
2023/03/05 08:10:09;;;;;;;10.70;1.60;;;4.30;99.90;;;;;;5042811;28;20029;-61
2023/03/05 08:12:35;;;;;;;4.78;1.50;;;4.40;99.90;;;;;;5044402;28;20103;-62
2023/03/05 08:15:00;;;;;;;5.20;1.10;;;4.50;99.90;;;;;;5036832;28;20034;-61
2023/03/05 08:17:26;;;;;;;2.03;1.10;;;4.60;99.90;;;;;;5051724;28;20021;-62
2023/03/05 08:19:56;;;;;;;6.67;1.90;;;4.80;99.90;;;;;;5047496;28;20029;-72
2023/03/05 08:22:22;;;;;;;3.35;2.25;;;4.90;99.90;;;;;;5037925;28;20025;-61
2023/03/05 08:24:48;;;;;;;4.13;1.17;;;5.00;99.90;;;;;;5050938;28;20309;-62
2023/03/05 08:27:14;;;;;;;3.10;0.93;;;5.00;99.90;;;;;;5048776;28;20029;-71
2023/03/05 08:29:40;;;;;;;2.13;1.00;;;4.90;99.90;;;;;;5048101;28;20048;-62
2023/03/05 08:32:05;;;;;;;5.80;1.73;;;4.90;99.90;;;;;;5054548;28;20355;-61
2023/03/05 08:34:31;;;;;;;2.03;1.17;;;4.80;99.90;;;;;;5055828;28;20029;-62
2023/03/05 08:36:57;;;;;;;3.67;1.17;;;4.90;99.90;;;;;;5049784;28;20048;-61
2023/03/05 08:39:22;;;;;;;1.90;1.20;;;4.80;99.90;;;;;;5054251;28;20021;-62
2023/03/05 08:41:48;;;;;;;5.97;1.60;;;4.90;99.90;;;;;;5050835;28;20112;-62
2023/03/05 08:44:14;;;;;;;3.13;1.47;;;5.00;99.90;;;;;;5034902;28;20020;-71
2023/03/05 08:46:39;;;;;;;4.97;1.33;;;5.10;99.90;;;;;;5055040;28;20029;-62
2023/03/05 08:49:08;;;;;;;5.93;1.57;;;5.20;99.90;;;;;;5046940;28;20319;-61
2023/03/05 08:51:35;;;;;;;6.43;1.55;;;5.30;99.90;;;;;;5044370;28;20091;-62
2023/03/05 08:54:02;;;;;;;2.60;1.00;;;5.40;99.90;;;;;;5067777;28;20033;-63
2023/03/05 08:56:30;;;;;;;6.20;1.20;;;5.50;99.90;;;;;;5052405;28;20041;-62
2023/03/05 08:58:56;;;;;;;1.88;1.23;;;5.60;99.90;;;;;;5050873;28;20032;-62
2023/03/05 09:01:22;;;;;;;3.23;1.40;;;5.60;99.90;;;;;;5043332;28;20044;-62
2023/03/05 09:03:48;;;;;;;7.38;1.65;;;5.80;99.90;;;;;;5056422;28;20330;-62
2023/03/05 09:06:14;;;;;;;2.07;1.10;;;5.90;99.90;;;;;;5055110;28;20029;-62
2023/03/05 09:08:40;;;;;;;3.10;1.50;;;6.00;99.90;;;;;;5051322;28;20323;-62
2023/03/05 09:11:07;;;;;;;5.55;1.23;;;6.10;99.90;;;;;;5053424;28;20113;-62
2023/03/05 09:13:34;;;;;;;6.15;1.55;;;6.30;99.90;;;;;;5044189;28;20057;-62
2023/03/05 09:16:02;;;;;;;2.63;1.25;;;6.50;99.90;;;;;;5048580;28;20033;-62
2023/03/05 09:18:28;;;;;;;4.07;0.98;;;6.60;99.90;;;;;;5051120;28;20025;-72
2023/03/05 09:20:54;;;;;;;4.63;1.65;;;6.70;99.90;;;;;;5053552;28;20025;-72
2023/03/05 09:23:21;;;;;;;4.13;1.10;;;6.80;99.90;;;;;;5056889;28;20359;-62
2023/03/05 09:25:48;;;;;;;2.70;1.48;;;6.70;99.90;;;;;;5048955;28;20021;-62
2023/03/05 09:28:13;;;;;;;;;;;6.60;99.90;;;;;;5029854;28;20060;-71
2023/03/05 09:30:39;;;;;;;6.23;1.90;;;6.50;99.90;;;;;;5033726;28;19917;-62
2023/03/05 09:33:05;;;;;;;4.37;1.10;;;6.30;99.90;;;;;;5033642;28;20028;-62
2023/03/05 09:35:34;;;;;;;2.70;1.00;;;6.40;99.90;;;;;;5022185;28;20047;-61
2023/03/05 09:38:00;;;;;;;3.25;1.38;;;6.20;99.90;;;;;;5040784;28;20021;-63
2023/03/05 09:40:49;;;;;;;6.23;1.47;;;6.20;99.90;;;;;;5040468;28;20398;-61
2023/03/05 09:43:36;;;;;;;1.95;1.13;;;6.10;99.90;;;;;;5026352;28;20033;-62
2023/03/05 09:46:11;;;;;;;5.38;1.13;;;6.00;99.90;;;;;;5034571;28;20022;-61
2023/03/05 09:48:50;;;;;;;2.72;0.77;;;6.10;99.90;;;;;;5034389;28;20056;-61
2023/03/05 09:51:22;;;;;;;7.00;1.17;;;6.00;99.90;;;;;;5035255;28;20037;-61
2023/03/05 09:54:01;;;;;;;3.22;1.15;;;6.00;99.90;;;;;;5030490;28;20030;-62
2023/03/05 09:56:34;;;;;;;4.65;1.08;;;6.20;99.90;;;;;;5039276;28;20037;-61
2023/03/05 09:59:23;;;;;;;2.60;0.70;;;6.40;99.90;;;;;;5032787;28;20079;-63
2023/03/05 10:01:51;;;;;;;0.75;0.60;;;6.30;99.90;;;;;;5039507;28;20032;-61
2023/03/05 10:04:23;;;;;;;4.30;1.33;;;6.20;99.90;;;;;;5030680;28;20037;-71
2023/03/05 10:07:11;;;;;;;6.00;1.17;;;6.10;99.90;;;;;;5041986;28;20131;-62
2023/03/05 10:09:55;;;;;;;6.03;0.80;;;5.80;99.90;;;;;;5030651;28;20041;-72
2023/03/05 10:12:41;;;;;;;2.97;0.80;;;5.80;99.90;;;;;;5036424;28;20053;-62
2023/03/05 10:15:20;;;;;;;1.60;0.73;;;5.80;99.90;;;;;;5028794;28;20048;-62
2023/03/05 10:17:49;;;;;;;3.60;0.95;;;5.90;99.90;;;;;;5033105;28;20088;-62
2023/03/05 10:20:21;;;;;;;2.35;0.95;;;6.00;99.90;;;;;;5032897;28;20101;-72
2023/03/05 10:23:04;;;;;;;2.45;1.00;;;6.10;99.90;;;;;;5033049;28;20112;-62
2023/03/05 10:25:39;;;;;;;4.00;1.13;;;6.10;99.90;;;;;;5030607;28;20357;-61
2023/03/05 10:28:30;;;;;;;1.50;0.80;;;6.10;99.90;;;;;;5031796;28;20041;-61
2023/03/05 10:31:20;;;;;;;2.83;0.93;;;6.30;99.90;;;;;;5039289;28;20068;-71
2023/03/05 10:33:58;;;;;;;1.50;0.32;;;6.30;99.90;;;;;;5049043;28;20048;-61
2023/03/05 10:36:40;;;;;;;4.35;0.60;;;6.20;99.90;;;;;;5042746;28;20060;-62
2023/03/05 10:39:37;;;;;;;5.60;0.60;;;6.10;99.90;;;;;;5046850;28;20066;-62
2023/03/05 10:42:11;;;;;;;4.85;0.57;;;6.20;99.90;;;;;;5055051;28;20108;-61
2023/03/05 10:44:59;;;;;;;1.02;0.70;;;6.10;99.90;;;;;;5043420;28;20036;-61
2023/03/05 10:47:28;;;;;;;2.38;0.60;;;6.10;99.90;;;;;;5050206;28;20021;-61
2023/03/05 10:49:55;;;;;;;1.38;0.50;;;6.20;99.90;;;;;;5053875;28;20380;-61
2023/03/05 10:52:36;;;;;;;4.35;0.60;;;6.20;99.90;;;;;;5050569;28;20053;-62
2023/03/05 10:55:14;;;;;;;1.80;0.70;;;6.30;99.90;;;;;;5049185;28;20037;-61
2023/03/05 10:57:39;;;;;;;5.40;0.63;;;6.50;99.90;;;;;;5055672;28;20056;-63
2023/03/05 11:00:05;;;;;;;1.80;0.77;;;6.70;99.90;;;;;;5050119;28;20060;-62
2023/03/05 11:02:32;;;;;;;1.67;0.80;;;6.90;99.90;;;;;;5046422;28;20027;-62
2023/03/05 11:04:58;;;;;;;1.08;0.57;;;6.80;99.90;;;;;;5064971;28;20033;-62
2023/03/05 11:07:23;;;;;;;0.73;0.40;;;7.10;99.90;;;;;;5050159;28;20136;-62
2023/03/05 11:10:18;;;;;;;2.27;0.60;;;7.30;99.90;;;;;;5053356;28;20368;-62
2023/03/05 11:12:44;;;;;;;4.57;0.77;;;7.50;99.90;;;;;;5055280;28;20028;-62
2023/03/05 11:15:13;;;;;;;2.50;0.50;;;7.30;99.90;;;;;;5048725;28;20323;-61
2023/03/05 11:17:43;;;;;;;1.25;0.57;;;7.20;99.90;;;;;;5050114;28;20056;-62
2023/03/05 11:20:27;;;;;;;2.08;0.77;;;7.00;99.90;;;;;;5053345;28;20066;-62
2023/03/05 11:23:15;;;;;;;0.90;0.35;;;6.90;99.90;;;;;;5051317;28;20059;-62
2023/03/05 11:25:52;;;;;;;2.85;0.40;;;6.70;99.90;;;;;;5051174;28;20033;-62
2023/03/05 11:28:23;;;;;;;4.65;0.52;;;6.50;99.90;;;;;;5050019;28;20057;-61
2023/03/05 11:31:17;;;;;;;5.45;0.55;;;6.50;99.90;;;;;;5046051;28;20082;-62
2023/03/05 11:34:02;;;;;;;5.05;0.63;;;6.40;99.90;;;;;;5048101;28;20028;-62
2023/03/05 11:36:35;;;;;;;0.85;0.30;;;6.40;99.90;;;;;;5042828;28;20037;-62
2023/03/05 11:39:07;;;;;;;3.00;0.80;;;6.50;99.90;;;;;;5046058;28;20032;-61
2023/03/05 11:41:44;;;;;;;5.70;0.73;;;6.70;99.90;;;;;;5031479;28;20024;-61
2023/03/05 11:44:14;;;;;;;;;;;6.70;99.90;;;;;;5040392;28;20044;-62
2023/03/05 11:46:46;;;;;;;0.90;0.40;;;6.70;99.90;;;;;;5044206;28;19923;-62
2023/03/05 11:49:23;;;;;;;2.13;0.90;;;6.80;99.90;;;;;;5043434;28;20029;-61
2023/03/05 11:52:10;;;;;;;2.20;1.13;;;7.00;99.90;;;;;;5052504;28;20036;-61
2023/03/05 11:54:51;;;;;;;9.70;1.38;;;7.40;99.90;;;;;;5053496;28;20082;-62
2023/03/05 11:57:19;;;;;;;4.82;1.25;;;7.40;99.90;;;;;;5053272;28;20024;-71
2023/03/05 11:59:45;;;;;;;3.17;1.23;;;7.70;99.90;;;;;;5052333;28;20029;-62
2023/03/05 12:02:19;;;;;;;4.53;1.60;;;7.90;99.90;;;;;;5047044;28;20028;-62
2023/03/05 12:04:47;;;;;;;1.60;1.48;;;8.10;99.90;;;;;;5044152;28;20056;-73
2023/03/05 12:07:17;;;;;;;4.03;1.17;;;8.20;99.90;;;;;;5052641;28;20028;-62
2023/03/05 12:09:50;;;;;;;3.35;1.60;;;8.20;99.90;;;;;;5052085;28;20053;-62
2023/03/05 12:12:39;;;;;;;4.50;1.30;;;8.50;99.90;;;;;;5046205;28;20628;-72
2023/03/05 12:15:11;;;;;;;3.42;1.10;;;8.70;99.90;;;;;;5046403;28;20059;-72
2023/03/05 12:17:54;;;;;;;5.75;1.30;;;8.80;99.90;;;;;;5044900;28;20021;-72
2023/03/05 12:20:57;;;;;;;1.88;1.08;;;8.90;99.90;;;;;;5047308;28;20048;-63
2023/03/05 12:23:26;;;;;;;3.85;1.08;;;9.00;99.90;;;;;;5055150;28;20017;-63
2023/03/05 12:25:58;;;;;;;5.40;1.17;;;8.80;99.90;;;;;;5050414;28;20120;-62
2023/03/05 12:28:52;;;;;;;6.32;1.05;;;8.70;99.90;;;;;;5053716;28;20045;-62
2023/03/05 12:31:47;;;;;;;2.80;1.15;;;8.40;99.90;;;;;;5057396;28;20062;-62
2023/03/05 12:34:51;;;;;;;4.65;1.90;;;8.20;99.90;;;;;;5034756;28;20072;-62
2023/03/05 12:37:19;;;;;;;2.15;1.40;;;8.00;99.90;;;;;;4970600;28;20125;-62
2023/03/05 12:39:57;;;;;;;3.97;1.33;;;7.70;99.90;;;;;;4970033;28;20333;-62
2023/03/05 12:42:28;;;;;;;6.47;2.13;;;7.60;99.90;;;;;;4968253;28;20493;-62
2023/03/05 12:45:28;;;;;;;2.20;1.45;;;7.40;99.90;;;;;;4968798;28;20381;-62
2023/03/05 12:47:54;;;;;;;2.55;1.10;;;7.30;99.90;;;;;;4940521;28;20036;-62
2023/03/05 12:50:28;;;;;;;2.83;1.00;;;7.30;99.90;;;;;;4950088;28;20489;-62
2023/03/05 12:52:53;;;;;;;2.78;1.30;;;7.20;99.90;;;;;;4953607;28;20102;-62
2023/03/05 12:55:35;;;;;;;2.13;0.80;;;7.10;99.90;;;;;;4948606;28;20438;-61
2023/03/05 12:58:10;;;;;;;4.15;1.20;;;6.70;99.90;;;;;;4947914;28;20035;-61
2023/03/05 13:00:48;;;;;;;2.10;0.80;;;6.60;99.90;;;;;;4949651;28;20057;-61
2023/03/05 13:03:23;;;;;;;1.77;0.77;;;6.50;99.90;;;;;;4948842;28;20057;-61
2023/03/05 13:05:53;;;;;;;4.22;0.68;;;6.30;99.90;;;;;;4953981;28;20035;-72
2023/03/05 13:08:29;;;;;;;5.68;1.05;;;6.30;99.90;;;;;;4989833;28;20450;-61
2023/03/05 13:10:56;;;;;;;4.53;0.88;;;6.40;99.90;;;;;;5011895;28;20033;-66